createdAt,value
2022-08-22T00:01:14.795Z,99698.31
2022-08-22T00:04:05.824Z,99697.47
2022-08-22T00:06:54.193Z,99692.94
2022-08-22T00:09:20.674Z,99686.75
2022-08-22T00:12:14.126Z,99697.47
2022-08-22T00:15:42.063Z,99696.59
2022-08-22T00:18:13.753Z,99693.94
2022-08-22T00:20:41.793Z,99692.25
2022-08-22T00:23:25.620Z,99690.56
2022-08-22T00:26:06.869Z,99691.50
2022-08-22T00:28:39.331Z,99695.06
2022-08-22T00:31:10.586Z,99696.75
2022-08-22T00:33:48.089Z,99696.84
2022-08-22T00:36:43.270Z,99684.44
2022-08-22T00:39:17.267Z,99690.66
2022-08-22T00:41:56.063Z,99692.38
2022-08-22T00:44:47.644Z,99697.84
2022-08-22T00:47:36.343Z,99701.34
2022-08-22T00:50:30.848Z,99698.81
2022-08-22T00:53:16.056Z,99704.16
2022-08-22T00:55:55.414Z,99704.16
2022-08-22T00:58:27.893Z,99701.50
2022-08-22T01:00:57.107Z,99703.31
2022-08-22T01:03:33.708Z,99706.00
2022-08-22T01:06:34.440Z,99704.31
2022-08-22T01:09:33.697Z,99701.63
2022-08-22T01:12:15.409Z,99706.13
2022-08-22T01:14:54.903Z,99705.28
2022-08-22T01:17:49.442Z,99704.41
2022-08-22T01:20:37.842Z,99704.41
2022-08-22T01:23:40.568Z,99697.38
2022-08-22T01:26:26.810Z,99698.22
2022-08-22T01:29:13.179Z,99702.72
2022-08-22T01:31:59.578Z,99700.03
2022-08-22T01:34:44.368Z,99696.53
2022-08-22T01:37:23.090Z,99704.53
2022-08-22T01:40:12.453Z,99695.66
2022-08-22T01:42:47.019Z,99694.81
2022-08-22T01:45:35.417Z,99698.34
2022-08-22T01:48:11.738Z,99696.66
2022-08-22T01:50:46.295Z,99700.19
2022-08-22T01:53:44.017Z,99692.28
2022-08-22T01:56:21.172Z,99692.28
2022-08-22T01:59:10.888Z,99704.69
2022-08-22T02:01:50.043Z,99700.31
2022-08-22T02:04:31.222Z,99694.97
2022-08-22T02:07:07.972Z,99695.91
2022-08-22T02:09:43.233Z,99691.56
2022-08-22T02:12:42.686Z,99690.56
2022-08-22T02:15:20.913Z,99690.56
2022-08-22T02:18:05.791Z,99688.87
2022-08-22T02:20:47.536Z,99683.66
2022-08-22T02:23:35.285Z,99680.97
2022-08-22T02:26:01.738Z,99689.00
2022-08-22T02:28:57.238Z,99680.13
2022-08-22T02:31:45.525Z,99681.81
2022-08-22T02:34:24.514Z,99683.66
2022-08-22T02:37:23.379Z,99673.06
2022-08-22T02:39:55.310Z,99677.47
2022-08-22T02:42:28.720Z,99680.13
2022-08-22T02:45:22.252Z,99681.97
2022-08-22T02:48:13.524Z,99670.38
2022-08-22T02:50:58.951Z,99674.88
2022-08-22T02:53:52.910Z,99672.22
2022-08-22T02:56:27.290Z,99675.88
2022-08-22T02:58:59.290Z,99682.06
2022-08-22T03:01:33.355Z,99679.53
2022-08-22T03:04:15.267Z,99675.03
2022-08-22T03:06:46.479Z,99677.69
2022-08-22T03:09:16.093Z,99684.88
2022-08-22T03:11:45.933Z,99678.69
2022-08-22T03:14:27.564Z,99681.34
2022-08-22T03:17:12.838Z,99681.34
2022-08-22T03:20:04.370Z,99685.88
2022-08-22T03:22:44.633Z,99690.38
2022-08-22T03:25:38.821Z,99681.47
2022-08-22T03:28:10.730Z,99690.38
2022-08-22T03:30:45.430Z,99693.03
2022-08-22T03:33:19.892Z,99691.31
2022-08-22T03:35:46.314Z,99699.34
2022-08-22T03:38:23.372Z,99695.81
2022-08-22T03:40:56.658Z,99697.66
2022-08-22T03:43:39.137Z,99698.63
2022-08-22T03:46:41.768Z,99699.47
2022-08-22T03:49:33.311Z,99699.47
2022-08-22T03:52:13.378Z,99698.63
2022-08-22T03:55:02.582Z,99701.31
2022-08-22T03:57:38.166Z,99705.81
2022-08-22T04:00:18.388Z,99699.62
2022-08-22T04:03:11.923Z,99706.78
2022-08-22T04:05:43.713Z,99704.97
2022-08-22T04:08:32.792Z,99707.62
2022-08-22T04:11:21.548Z,99705.94
2022-08-22T04:14:08.517Z,99705.06
2022-08-22T04:17:00.022Z,99705.94
2022-08-22T04:19:48.509Z,99701.53
2022-08-22T04:22:52.863Z,99701.53
2022-08-22T04:25:25.598Z,99706.06
2022-08-22T04:28:05.053Z,99713.22
2022-08-22T04:30:54.902Z,99712.37
2022-08-22T04:33:28.414Z,99723.94
2022-08-22T04:36:26.348Z,99714.06
2022-08-22T04:39:05.341Z,99717.72
2022-08-22T04:41:49.162Z,99723.94
2022-08-22T04:44:35.268Z,99716.88
2022-08-22T04:47:20.355Z,99718.72
2022-08-22T04:50:08.060Z,99732.94
2022-08-22T04:52:52.836Z,99719.69
2022-08-22T04:55:26.943Z,99715.19
2022-08-22T04:58:15.383Z,99724.91
2022-08-22T05:00:55.003Z,99720.53
2022-08-22T05:03:21.927Z,99729.41
2022-08-22T05:05:48.527Z,99725.88
2022-08-22T05:08:19.908Z,99729.50
2022-08-22T05:10:48.022Z,99724.91
2022-08-22T05:13:29.279Z,99727.81
2022-08-22T05:15:58.544Z,99728.56
2022-08-22T05:18:34.373Z,99734.75
2022-08-22T05:21:03.578Z,99735.72
2022-08-22T05:23:38.551Z,99742.03
2022-08-22T05:26:06.003Z,99743.25
2022-08-22T05:28:38.036Z,99748.09
2022-08-22T05:31:09.547Z,99749.69
2022-08-22T05:33:47.423Z,99750.16
2022-08-22T05:36:21.449Z,99747.50
2022-08-22T05:38:54.667Z,99756.47
2022-08-22T05:41:25.587Z,99760.34
2022-08-22T05:43:52.546Z,99761.25
2022-08-22T05:46:44.677Z,99767.94
2022-08-22T05:49:22.678Z,99764.75
2022-08-22T05:52:01.397Z,99762.09
2022-08-22T05:54:33.888Z,99766.09
2022-08-22T05:57:27.224Z,99775.28
2022-08-22T06:00:22.139Z,99771.78
2022-08-22T06:03:16.076Z,99777.75
2022-08-22T06:05:44.914Z,99782.53
2022-08-22T06:08:20.335Z,99788.75
2022-08-22T06:10:48.450Z,99788.00
2022-08-22T06:13:21.990Z,99786.44
2022-08-22T06:16:07.307Z,99786.44
2022-08-22T06:18:36.259Z,99788.34
2022-08-22T06:21:04.592Z,99793.34
2022-08-22T06:23:47.075Z,99787.87
2022-08-22T06:26:20.634Z,99783.53
2022-08-22T06:28:55.098Z,99793.22
2022-08-22T06:31:44.575Z,99793.47
2022-08-22T06:34:25.204Z,99790.31
2022-08-22T06:36:51.871Z,99796.50
2022-08-22T06:39:35.603Z,99797.69
2022-08-22T06:42:14.622Z,99800.34
2022-08-22T06:44:52.414Z,99797.56
2022-08-22T06:47:23.984Z,99801.31
2022-08-22T06:49:56.533Z,99799.72
2022-08-22T06:52:24.497Z,99803.37
2022-08-22T06:55:00.436Z,99801.41
2022-08-22T06:57:43.821Z,99794.53
2022-08-22T07:00:12.589Z,99793.22
2022-08-22T07:02:47.333Z,99802.22
2022-08-22T07:05:21.375Z,99796.50
2022-08-22T07:07:47.977Z,99800.22
2022-08-22T07:10:14.758Z,99794.78
2022-08-22T07:12:49.356Z,99798.41
2022-08-22T07:15:36.679Z,99792.84
2022-08-22T07:18:11.898Z,99794.19
2022-08-22T07:20:41.968Z,99807.22
2022-08-22T07:23:10.451Z,99809.66
2022-08-22T07:26:00.111Z,99811.22
2022-08-22T07:29:01.034Z,99808.91
2022-08-22T07:31:48.062Z,99817.53
2022-08-22T07:34:38.148Z,99805.38
2022-08-22T07:37:09.398Z,99812.47
2022-08-22T07:39:43.324Z,99811.22
2022-08-22T07:42:18.822Z,99809.44
2022-08-22T07:45:00.632Z,99810.37
2022-08-22T07:47:36.362Z,99808.34
2022-08-22T07:50:06.944Z,99813.13
2022-08-22T07:52:39.223Z,99811.91
2022-08-22T07:55:24.658Z,99819.81
2022-08-22T07:57:56.777Z,99818.72
2022-08-22T08:00:23.769Z,99825.69
2022-08-22T08:02:55.817Z,99821.19
2022-08-22T08:05:24.055Z,99821.91
2022-08-22T08:07:52.979Z,99821.91
2022-08-22T08:10:23.987Z,99820.84
2022-08-22T08:12:52.689Z,99810.28
2022-08-22T08:15:28.799Z,99818.28
2022-08-22T08:18:06.627Z,99812.94
2022-08-22T08:20:42.861Z,99820.97
2022-08-22T08:23:25.170Z,99820.84
2022-08-22T08:26:05.638Z,99815.25
2022-08-22T08:28:34.995Z,99824.00
2022-08-22T08:31:07.655Z,99821.94
2022-08-22T08:33:36.093Z,99828.00
2022-08-22T08:36:19.854Z,99819.91
2022-08-22T08:38:55.391Z,99817.09
2022-08-22T08:41:22.702Z,99817.22
2022-08-22T08:44:08.965Z,99818.94
2022-08-22T08:47:06.364Z,99817.31
2022-08-22T08:50:11.090Z,99817.22
2022-08-22T08:52:49.071Z,99817.94
2022-08-22T08:56:04.543Z,99815.28
2022-08-22T08:58:52.681Z,99821.34
2022-08-22T09:01:37.597Z,99828.16
2022-08-22T09:04:28.965Z,99820.13
2022-08-22T09:07:22.137Z,99823.78
2022-08-22T09:10:16.556Z,99828.91
2022-08-22T09:13:24.635Z,99826.97
2022-08-22T09:16:04.708Z,99813.59
2022-08-22T09:18:57.993Z,99815.28
2022-08-22T09:21:47.892Z,99809.94
2022-08-22T09:24:36.055Z,99802.78
2022-08-22T09:27:11.706Z,99815.91
2022-08-22T09:29:54.431Z,99813.25
2022-08-22T09:32:34.449Z,99813.09
2022-08-22T09:35:26.211Z,99817.59
2022-08-22T09:38:14.503Z,99807.19
2022-08-22T09:41:14.840Z,99815.06
2022-08-22T09:43:45.059Z,99816.75
2022-08-22T09:46:32.397Z,99815.91
2022-08-22T09:49:05.485Z,99818.59
2022-08-22T09:51:43.170Z,99819.44
2022-08-22T09:54:49.352Z,99824.28
2022-08-22T09:57:19.463Z,99828.06
2022-08-22T10:00:15.138Z,99828.16
2022-08-22T10:03:11.210Z,99831.59
2022-08-22T10:05:46.344Z,99835.94
2022-08-22T10:08:33.317Z,99819.78
2022-08-22T10:11:07.087Z,99834.25
2022-08-22T10:14:08.855Z,99841.66
2022-08-22T10:16:57.008Z,99846.28
2022-08-22T10:19:42.441Z,99843.69
2022-08-22T10:22:15.196Z,99842.97
2022-08-22T10:25:07.579Z,99832.03
2022-08-22T10:27:40.261Z,99840.81
2022-08-22T10:30:10.190Z,99839.94
2022-08-22T10:33:15.671Z,99843.47
2022-08-22T10:35:51.393Z,99841.87
2022-08-22T10:38:25.481Z,99841.87
2022-08-22T10:40:59.457Z,99848.94
2022-08-22T10:43:45.372Z,99847.34
2022-08-22T10:46:13.841Z,99843.69
2022-08-22T10:49:08.028Z,99841.03
2022-08-22T10:51:49.186Z,99842.72
2022-08-22T10:54:28.096Z,99838.00
2022-08-22T10:56:59.311Z,99830.12
2022-08-22T10:59:57.172Z,99834.59
2022-08-22T11:02:54.936Z,99833.63
2022-08-22T11:05:36.876Z,99834.25
2022-08-22T11:08:52.780Z,99829.75
2022-08-22T11:11:34.544Z,99820.91
2022-08-22T11:14:12.947Z,99823.56
2022-08-22T11:17:27.488Z,99821.59
2022-08-22T11:20:19.474Z,99826.09
2022-08-22T11:23:08.104Z,99819.91
2022-08-22T11:26:00.496Z,99826.97
2022-08-22T11:28:46.787Z,99826.81
2022-08-22T11:31:23.032Z,99825.13
2022-08-22T11:33:58.202Z,99817.13
2022-08-22T11:36:27.764Z,99817.00
2022-08-22T11:39:09.923Z,99807.88
2022-08-22T11:42:11.833Z,99819.34
2022-08-22T11:45:05.195Z,99819.19
2022-08-22T11:47:45.560Z,99807.53
2022-08-22T11:50:25.517Z,99803.16
2022-08-22T11:53:26.247Z,99804.84
2022-08-22T11:56:42.863Z,99811.06
2022-08-22T11:59:43.136Z,99799.38
2022-08-22T12:02:51.823Z,99803.87
2022-08-22T12:05:30.876Z,99801.34
2022-08-22T12:08:07.947Z,99797.94
2022-08-22T12:10:59.109Z,99795.28
2022-08-22T12:13:45.912Z,99798.03
2022-08-22T12:16:34.188Z,99807.19
2022-08-22T12:19:17.007Z,99801.81
2022-08-22T12:22:24.344Z,99798.31
2022-08-22T12:25:02.777Z,99799.16
2022-08-22T12:27:48.602Z,99797.31
2022-08-22T12:30:27.596Z,99797.31
2022-08-22T12:33:06.455Z,99798.31
2022-08-22T12:36:09.503Z,99791.97
2022-08-22T12:38:57.092Z,99790.03
2022-08-22T12:41:51.583Z,99787.34
2022-08-22T12:44:21.063Z,99782.84
2022-08-22T12:46:52.375Z,99784.69
2022-08-22T12:49:42.041Z,99782.84
2022-08-22T12:52:35.914Z,99783.69
2022-08-22T12:55:16.072Z,99784.59
2022-08-22T12:57:53.990Z,99779.25
2022-08-22T13:00:30.035Z,99784.69
2022-08-22T13:02:56.786Z,99782.84
2022-08-22T13:05:27.825Z,99776.66
2022-08-22T13:08:04.143Z,99782.84
2022-08-22T13:10:37.215Z,99786.50
2022-08-22T13:13:12.227Z,99783.97
2022-08-22T13:16:03.345Z,99797.31
2022-08-22T13:18:36.855Z,99786.72
2022-08-22T13:21:05.591Z,99791.38
2022-08-22T13:23:39.813Z,99797.06
2022-08-22T13:26:31.822Z,99803.37
2022-08-22T13:29:26.829Z,99799.97
2022-08-22T13:31:59.082Z,99795.72
2022-08-22T13:34:43.735Z,99808.59
2022-08-22T13:37:20.262Z,99813.03
2022-08-22T13:39:52.778Z,99811.03
2022-08-22T13:42:27.669Z,99816.63
2022-08-22T13:44:59.667Z,99823.50
2022-08-22T13:47:35.037Z,99829.06
2022-08-22T13:50:10.221Z,99821.66
2022-08-22T13:52:43.585Z,99831.06
2022-08-22T13:55:31.274Z,99829.38
2022-08-22T13:58:00.758Z,99826.72
2022-08-22T14:00:57.338Z,99832.91
2022-08-22T14:03:49.164Z,99829.38
2022-08-22T14:06:41.514Z,99825.22
2022-08-22T14:09:32.826Z,99816.25
2022-08-22T14:12:26.295Z,99811.88
2022-08-22T14:15:00.121Z,99810.19
2022-08-22T14:17:44.643Z,99813.91
2022-08-22T14:20:33.640Z,99816.00
2022-08-22T14:23:06.468Z,99818.03
2022-08-22T14:25:37.925Z,99815.56
2022-08-22T14:28:09.636Z,99810.34
2022-08-22T14:30:39.253Z,99809.72
2022-08-22T14:33:17.685Z,99803.87
2022-08-22T14:35:52.811Z,99803.87
2022-08-22T14:38:30.062Z,99804.38
2022-08-22T14:41:14.188Z,99799.00
2022-08-22T14:43:57.186Z,99802.75
2022-08-22T14:46:49.440Z,99805.44
2022-08-22T14:49:18.618Z,99814.72
2022-08-22T14:51:50.889Z,99817.63
2022-08-22T14:54:21.547Z,99818.16
2022-08-22T14:56:48.753Z,99814.84
2022-08-22T14:59:39.887Z,99811.97
2022-08-22T15:02:14.327Z,99810.59
2022-08-22T15:04:42.779Z,99808.91
2022-08-22T15:07:09.593Z,99815.19
2022-08-22T15:09:44.115Z,99815.09
2022-08-22T15:12:40.967Z,99815.09
2022-08-22T15:15:14.402Z,99807.50
2022-08-22T15:17:50.872Z,99813.06
2022-08-22T15:20:38.295Z,99816.59
2022-08-22T15:23:17.150Z,99825.56
2022-08-22T15:25:47.038Z,99831.75
2022-08-22T15:28:20.120Z,99830.97
2022-08-22T15:31:03.667Z,99830.25
2022-08-22T15:33:36.248Z,99830.56
2022-08-22T15:36:20.760Z,99841.75
2022-08-22T15:38:48.423Z,99829.97
2022-08-22T15:41:37.049Z,99828.13
2022-08-22T15:44:18.258Z,99831.84
2022-08-22T15:47:02.623Z,99837.50
2022-08-22T15:49:35.125Z,99837.91
2022-08-22T15:52:01.823Z,99849.81
2022-08-22T15:54:46.764Z,99854.81
2022-08-22T15:57:28.669Z,99864.31
2022-08-22T16:00:00.720Z,99862.25
2022-08-22T16:02:40.179Z,99861.19
2022-08-22T16:05:10.366Z,99868.12
2022-08-22T16:07:45.745Z,99864.37
2022-08-22T16:10:13.418Z,99857.94
2022-08-22T16:12:45.941Z,99848.97
2022-08-22T16:15:54.345Z,99853.22
2022-08-22T16:18:39.309Z,99866.47
2022-08-22T16:21:39.152Z,99857.38
2022-08-22T16:24:05.636Z,99851.06
2022-08-22T16:26:41.415Z,99861.63
2022-08-22T16:29:14.720Z,99865.06
2022-08-22T16:31:44.417Z,99864.94
2022-08-22T16:34:16.997Z,99863.09
2022-08-22T16:36:46.366Z,99864.81
2022-08-22T16:39:22.097Z,99868.34
2022-08-22T16:41:57.493Z,99860.34
2022-08-22T16:44:30.065Z,99860.22
2022-08-22T16:47:16.385Z,99862.75
2022-08-22T16:49:49.147Z,99866.28
2022-08-22T16:52:24.964Z,99869.81
2022-08-22T16:55:02.545Z,99866.19
2022-08-22T16:58:05.696Z,99859.88
2022-08-22T17:01:03.691Z,99860.84
2022-08-22T17:03:49.123Z,99860.72
2022-08-22T17:06:36.403Z,99866.81
2022-08-22T17:09:21.855Z,99869.59
2022-08-22T17:12:13.000Z,99871.31
2022-08-22T17:14:58.339Z,99880.16
2022-08-22T17:17:47.131Z,99882.84
2022-08-22T17:20:38.522Z,99882.84
2022-08-22T17:23:32.284Z,99889.03
2022-08-22T17:26:11.751Z,99894.37
2022-08-22T17:28:49.702Z,99895.13
2022-08-22T17:31:25.413Z,99901.44
2022-08-22T17:34:05.341Z,99910.31
2022-08-22T17:36:49.202Z,99911.16
2022-08-22T17:39:32.689Z,99914.69
2022-08-22T17:42:08.450Z,99905.81
2022-08-22T17:44:55.903Z,99904.84
2022-08-22T17:47:30.151Z,99906.53
2022-08-22T17:50:41.297Z,99920.03
2022-08-22T17:53:16.213Z,99918.19
2022-08-22T17:56:04.282Z,99918.19
2022-08-22T17:58:43.800Z,99913.72
2022-08-22T18:01:50.154Z,99918.06
2022-08-22T18:05:13.767Z,99920.75
2022-08-22T18:07:57.559Z,99921.62
2022-08-22T18:10:46.727Z,99916.28
2022-08-22T18:13:31.588Z,99913.62
2022-08-22T18:16:01.365Z,99918.97
2022-08-22T18:18:46.590Z,99913.62
2022-08-22T18:21:19.866Z,99921.62
2022-08-22T18:23:51.197Z,99921.62
2022-08-22T18:27:01.523Z,99921.62
2022-08-22T18:29:48.506Z,99925.16
2022-08-22T18:32:33.522Z,99933.16
2022-08-22T18:35:03.036Z,99936.69
2022-08-22T18:37:34.841Z,99926.84
2022-08-22T18:40:13.769Z,99926.00
2022-08-22T18:42:50.156Z,99925.03
2022-08-22T18:45:44.001Z,99926.00
2022-08-22T18:48:28.831Z,99924.19
2022-08-22T18:51:23.962Z,99931.34
2022-08-22T18:53:55.332Z,99937.53
2022-08-22T18:56:24.754Z,99949.06
2022-08-22T18:59:05.427Z,99939.34
2022-08-22T19:02:10.328Z,99940.22
2022-08-22T19:04:55.750Z,99942.03
2022-08-22T19:07:45.565Z,99940.22
2022-08-22T19:10:18.044Z,99944.69
2022-08-22T19:13:20.019Z,99948.22
2022-08-22T19:16:07.907Z,99947.37
2022-08-22T19:18:53.075Z,99950.03
2022-08-22T19:21:45.385Z,99963.41
2022-08-22T19:24:20.842Z,99962.56
2022-08-22T19:26:48.147Z,99960.72
2022-08-22T19:29:17.544Z,99968.75
2022-08-22T19:31:55.063Z,99969.59
2022-08-22T19:34:30.882Z,99968.75
2022-08-22T19:37:32.703Z,99963.41
2022-08-22T19:40:05.515Z,99969.59
2022-08-22T19:42:34.265Z,99968.75
2022-08-22T19:45:08.671Z,99966.06
2022-08-22T19:47:41.960Z,99967.91
2022-08-22T19:50:16.072Z,99967.91
2022-08-22T19:53:11.214Z,99968.75
2022-08-22T19:55:37.695Z,99970.56
2022-08-22T19:58:16.442Z,99977.63
2022-08-22T20:00:48.382Z,99974.94
2022-08-22T20:03:48.879Z,99969.59
2022-08-22T20:06:45.085Z,99971.41
2022-08-22T20:09:20.853Z,99972.28
2022-08-22T20:12:06.021Z,99973.25
2022-08-22T20:14:37.296Z,99975.06
2022-08-22T20:17:25.192Z,99977.75
2022-08-22T20:22:47.080Z,99974.19
2022-08-22T20:25:42.527Z,99968.97
2022-08-22T20:28:29.703Z,99966.28
2022-08-22T20:31:01.606Z,99962.78
2022-08-22T20:33:37.182Z,99968.13
2022-08-22T20:36:06.639Z,99955.72
2022-08-22T20:38:55.630Z,99960.09
2022-08-22T20:41:37.381Z,99965.56
2022-08-22T20:44:30.707Z,99958.41
2022-08-22T20:47:07.390Z,99962.91
2022-08-22T20:49:44.862Z,99949.53
2022-08-22T20:52:30.054Z,99947.81
2022-08-22T20:55:12.681Z,99952.22
2022-08-22T20:57:48.575Z,99954.87
2022-08-22T21:00:18.655Z,99965.56
2022-08-22T21:03:01.897Z,99952.22
2022-08-22T21:05:36.739Z,99960.22
2022-08-22T21:08:22.536Z,99954.87
2022-08-22T21:11:18.683Z,99958.50
2022-08-22T21:13:45.271Z,99954.03
2022-08-22T21:16:13.611Z,99950.47
2022-08-22T21:18:45.778Z,99948.69
2022-08-22T21:21:25.094Z,99949.53
2022-08-22T21:24:00.381Z,99947.81
2022-08-22T21:26:28.227Z,99954.87
2022-08-22T21:29:33.791Z,99951.38
2022-08-22T21:32:09.480Z,99951.38
2022-08-22T21:34:41.004Z,99947.81
2022-08-22T21:37:27.018Z,99950.47
2022-08-22T21:40:16.916Z,99954.03
2022-08-22T21:42:45.946Z,99953.16
2022-08-22T21:45:41.221Z,99950.47
2022-08-22T21:48:33.960Z,99947.81
2022-08-22T21:51:39.539Z,99947.81
2022-08-22T21:54:25.011Z,99953.16
2022-08-22T21:56:56.143Z,99954.03
2022-08-22T21:59:25.668Z,99950.47
2022-08-22T22:01:53.167Z,99951.44
2022-08-22T22:04:22.087Z,99946.97
2022-08-22T22:06:48.688Z,99957.66
2022-08-22T22:09:15.435Z,99955.81
2022-08-22T22:11:42.031Z,99971.84
2022-08-22T22:14:08.705Z,99973.66
2022-08-22T22:16:35.303Z,99974.53
2022-08-22T22:19:01.929Z,99975.50
2022-08-22T22:21:28.725Z,99982.66
2022-08-22T22:23:56.424Z,99988.84
2022-08-22T22:26:25.500Z,99988.84
2022-08-22T22:28:52.960Z,99992.38
2022-08-22T22:31:19.557Z,99986.19
2022-08-22T22:33:46.219Z,99994.19
2022-08-22T22:36:18.703Z,99991.53
2022-08-22T22:38:45.307Z,99988.84
2022-08-22T22:41:12.300Z,99996.00
2022-08-22T22:43:38.916Z,99997.72
2022-08-22T22:46:05.588Z,99994.19
2022-08-22T22:48:32.709Z,99995.03
2022-08-22T22:50:59.319Z,99991.53
2022-08-22T22:53:33.833Z,99989.78
2022-08-22T22:56:05.903Z,99996.00
2022-08-22T22:58:33.398Z,100003.16
2022-08-22T23:01:12.748Z,99997.81
2022-08-22T23:03:39.471Z,99997.81
2022-08-22T23:06:13.319Z,100001.38
2022-08-22T23:08:40.011Z,100002.31
2022-08-22T23:11:18.534Z,100004.03
2022-08-22T23:13:45.457Z,100002.31
2022-08-22T23:16:14.448Z,100003.16
2022-08-22T23:18:41.521Z,100002.31
2022-08-22T23:21:18.847Z,100003.28
2022-08-22T23:23:45.780Z,99999.63
2022-08-22T23:26:12.697Z,100003.16
2022-08-22T23:28:39.578Z,100008.50
2022-08-22T23:31:14.139Z,100013.84
2022-08-22T23:33:40.799Z,100012.97
2022-08-22T23:36:17.747Z,100004.97
2022-08-22T23:38:44.491Z,100001.44
2022-08-22T23:41:11.953Z,100001.44
2022-08-22T23:43:41.747Z,99996.97
2022-08-22T23:46:08.320Z,99993.44
2022-08-22T23:48:34.907Z,99998.78
2022-08-22T23:51:01.572Z,99996.97
2022-08-22T23:53:29.051Z,99996.09
2022-08-22T23:55:55.979Z,99996.09
2022-08-22T23:58:22.779Z,99991.63
